Date,TemperatureHighF,TemperatureAvgF,TemperatureLowF,DewpointHighF,DewpointAvgF,DewpointLowF,HumidityHigh,HumidityAvg,HumidityLow,PressureMaxIn,PressureMinIn,WindSpeedMaxMPH,WindSpeedAvgMPH,GustSpeedMaxMPH,PrecipitationSumIn
2014-1-1,43.9,33.9,26.2,29.6,25.1,22.7,90,72,48,30.50,30.26,14,1,14,0.00
2014-1-2,43.6,34.8,15.2,43.1,32.5,11.8,99,91,75,30.27,29.83,32,8,32,0.60
2014-1-3,27.2,18.1,9.1,18.0,12.9,5.8,91,80,62,30.56,30.12,22,4,22,0.00
2014-1-4,39.2,29.3,18.5,36.2,22.5,10.3,94,76,48,30.56,30.35,17,2,17,0.03
2014-1-5,52.9,46.2,38.0,48.9,43.9,36.2,100,92,81,30.35,29.75,51,11,51,0.15
2014-1-6,49.4,16.1,-0.2,48.3,12.7,-5.6,96,86,75,30.46,29.75,43,10,43,0.23
2014-1-7,20.1,7.8,-3.5,9.3,-0.4,-8.8,92,70,42,30.71,30.45,22,6,22,0.00
2014-1-8,38.1,23.5,11.5,24.2,15.2,6.1,91,72,49,30.78,30.64,5,0,5,0.00
2014-1-9,48.6,35.4,25.7,39.2,28.0,17.8,95,76,39,30.66,30.51,24,2,24,0.01
2014-1-10,57.0,46.7,39.4,55.8,46.2,38.1,99,98,95,30.51,30.08,26,3,26,0.30
2014-1-11,58.7,53.8,42.6,57.1,48.6,36.1,98,84,54,30.07,29.70,50,18,50,0.88
2014-1-12,53.0,45.1,38.2,37.8,34.1,29.3,85,66,43,30.25,29.92,19,4,19,0.00
2014-1-13,53.7,46.0,37.4,44.3,36.5,31.1,94,70,49,30.24,29.97,21,4,21,0.05
2014-1-14,50.6,45.9,42.4,44.6,38.0,31.7,94,75,50,30.07,29.86,17,4,17,0.38
2014-1-15,45.1,36.8,24.9,34.5,26.8,11.9,87,68,35,30.10,29.98,23,5,23,0.00
2014-1-16,40.7,31.4,21.0,21.5,17.7,14.0,84,59,35,30.17,30.06,24,5,24,0.00
2014-1-17,43.9,36.2,22.8,28.7,22.4,10.9,82,57,43,30.11,29.92,45,16,45,0.00
2014-1-18,36.4,28.4,19.7,18.2,13.9,10.2,76,56,36,30.23,30.06,31,10,31,0.00
2014-1-19,46.2,40.0,36.0,30.2,24.1,14.7,63,53,41,30.17,30.05,25,12,25,0.00
2014-1-20,57.9,47.7,39.2,31.8,26.7,18.4,62,44,35,30.12,29.92,26,15,26,0.00
2014-1-21,49.1,35.3,14.5,31.8,25.7,10.4,93,70,48,30.02,29.72,29,10,29,0.00
2014-1-22,28.8,18.9,8.6,13.2,6.8,-4.5,87,61,35,30.29,30.01,23,7,23,0.00
2014-1-23,27.8,19.9,9.3,16.5,8.7,-1.2,74,62,46,30.60,30.29,17,6,19,0.00
2014-1-24,28.5,16.8,4.2,9.9,1.6,-4.3,78,53,33,30.73,30.39,22,4,22,0.00
2014-1-25,35.0,25.6,19.9,24.0,12.1,-0.3,84,58,38,30.39,29.95,37,15,37,0.00
2014-1-26,34.7,33.1,31.3,24.6,23.1,20.8,70,66,63,30.09,30.05,23,7,23,0.00
2014-3-3,34.7,30.1,28.9,33.6,29.1,27.9,97,96,94,30.20,29.98,14,2,14,0.37
2014-3-4,39.6,35.0,29.5,38.4,34.1,28.5,99,96,94,30.30,30.17,7,0,7,0.01
2014-3-5,58.7,44.4,36.1,43.1,37.7,34.3,98,80,46,30.27,30.13,10,1,10,0.00
2014-3-6,48.5,42.2,37.5,37.0,26.0,16.1,92,56,28,30.23,30.07,14,6,14,0.01
2014-3-7,56.3,45.3,38.6,45.0,40.2,36.7,98,83,58,30.12,30.00,12,2,13,0.02
2014-3-8,62.2,50.1,38.1,43.3,37.2,33.8,92,64,37,30.22,30.11,29,6,29,0.00
2014-3-9,60.9,51.7,45.4,41.9,35.2,24.1,79,56,31,30.22,30.14,22,6,22,0.00
2014-3-10,46.9,44.8,43.7,39.6,32.1,27.8,77,61,50,30.19,30.12,12,2,12,0.00
2014-3-17,51.9,48.6,45.9,51.0,47.4,45.1,97,96,93,29.86,29.72,19,7,19,0.00
2014-3-18,59.8,49.2,43.2,52.6,45.6,42.0,100,89,66,30.11,29.84,22,4,24,0.00
2014-3-19,57.2,47.2,40.0,47.2,43.3,38.8,98,87,65,30.17,30.07,27,8,27,0.00
2014-3-20,55.7,48.2,40.1,45.2,31.2,17.1,95,57,23,30.19,30.10,36,8,36,0.00
2014-3-21,63.4,47.9,31.4,33.6,26.5,22.1,76,47,23,30.26,30.12,22,4,22,0.00
2014-3-22,66.2,57.5,51.8,45.0,37.5,28.5,68,48,40,30.16,30.03,24,7,24,0.00
2014-3-23,54.0,44.9,36.5,44.9,39.4,27.5,98,82,64,30.24,29.98,19,4,19,0.21
2014-3-24,53.9,39.9,27.8,29.1,24.9,21.3,84,58,31,30.32,30.10,20,4,21,0.00
2014-3-25,41.7,32.9,24.9,33.6,26.9,11.5,96,79,51,30.25,29.96,28,7,28,0.00
2014-3-26,43.9,30.8,20.5,20.5,13.4,9.4,69,50,26,30.45,30.24,18,6,18,0.00
2014-3-27,58.8,42.4,27.5,30.1,23.4,15.9,76,50,26,30.49,30.28,24,4,24,0.10
2014-3-28,54.7,52.0,48.7,53.5,48.8,30.1,98,89,48,30.31,30.12,32,5,32,0.02
2014-3-29,56.1,49.8,35.7,56.1,49.1,34.6,100,97,91,30.13,29.77,29,6,29,0.28
2014-3-30,50.5,40.7,32.7,37.6,32.2,27.7,100,74,45,30.26,30.00,24,10,24,0.00
2014-3-31,71.4,53.4,33.7,36.3,29.5,21.2,75,44,20,30.31,30.17,18,3,20,0.00
2014-4-1,74.1,62.4,50.2,49.2,36.2,25.7,53,38,26,30.22,30.09,29,6,29,0.00
2014-4-2,78.2,66.0,53.6,48.2,37.4,26.3,61,36,24,30.17,30.06,29,5,29,0.00
2014-4-3,77.8,68.1,61.6,59.2,54.5,39.3,83,63,39,30.12,29.92,32,10,32,0.00
2014-4-4,65.3,60.7,55.4,58.8,55.4,51.8,95,83,71,29.96,29.83,44,15,44,0.00
2014-4-5,61.9,50.4,40.6,52.8,39.9,33.6,91,69,35,30.12,29.95,25,6,25,0.00
2014-4-6,64.9,51.5,42.4,48.1,40.2,35.8,95,67,39,30.18,30.02,19,3,19,0.00
2014-4-7,58.6,51.8,45.4,56.2,50.6,44.6,99,96,90,30.04,29.69,37,9,37,3.23
2014-4-8,53.2,46.9,41.4,50.7,40.1,36.9,93,78,62,29.89,29.76,31,6,31,0.00
2014-4-9,56.9,48.9,43.7,43.6,38.4,32.2,93,70,41,30.24,29.89,25,5,25,0.00
2014-4-10,70.0,53.7,37.0,48.2,37.0,32.6,86,57,34,30.36,30.22,23,4,23,0.01
2014-4-11,71.2,60.9,52.6,46.5,40.7,35.9,65,48,29,30.28,30.12,28,6,28,0.00
2014-4-12,79.1,65.5,53.3,54.6,49.6,44.9,82,58,37,30.25,30.10,22,6,22,0.00
2014-4-13,77.9,65.9,54.3,56.8,53.4,49.6,85,65,45,30.18,30.01,29,6,29,0.00
2014-4-14,65.2,61.4,57.3,59.8,56.1,53.7,97,83,68,30.01,29.82,36,13,36,0.17
2014-4-15,60.3,43.8,31.0,58.0,41.0,24.2,100,90,76,30.15,29.66,29,11,29,0.16
2014-4-16,61.2,42.6,26.7,39.0,27.5,23.3,90,60,30,30.44,30.15,20,5,20,0.00
2014-4-17,67.4,50.1,36.9,38.6,31.3,26.4,69,51,26,30.36,30.22,18,6,18,0.00
2014-4-18,55.0,49.9,46.1,46.5,37.6,30.5,90,63,49,30.27,30.09,12,3,12,0.00
2014-4-19,59.1,51.3,47.2,49.1,46.7,43.7,95,85,64,30.23,30.01,18,3,19,0.00
2014-4-20,74.3,57.3,41.8,49.0,43.1,36.9,96,65,28,30.30,30.14,13,2,13,0.00
2014-4-21,75.7,61.6,45.1,49.4,44.2,39.4,81,55,34,30.19,29.95,20,4,20,0.00
2014-4-22,62.7,59.0,55.5,59.7,53.6,46.1,98,83,55,29.95,29.79,15,3,15,0.00
2014-4-23,69.5,58.3,47.7,56.3,40.3,29.7,91,56,29,29.99,29.84,14,5,14,0.00
2014-4-24,75.9,59.2,41.3,45.7,37.6,31.1,75,48,26,30.08,29.90,22,4,22,0.00
2014-4-25,67.4,63.1,56.4,58.0,52.2,44.9,86,68,54,29.94,29.75,41,11,41,0.00
2014-4-26,79.9,63.5,46.0,50.2,44.6,39.0,87,56,24,30.05,29.92,20,4,20,0.00
2014-4-27,83.6,67.0,52.7,60.8,50.7,43.3,92,58,34,30.00,29.86,28,5,28,0.00
2014-4-28,77.0,67.7,59.2,63.7,60.2,57.8,99,79,53,29.95,29.72,33,7,33,0.73
2014-4-29,73.6,66.6,60.3,64.0,60.6,57.7,97,81,64,29.85,29.66,39,13,39,0.78
2014-4-30,70.7,63.3,56.2,61.6,58.6,54.8,97,85,65,29.88,29.78,33,11,33,0.23
2014-5-1,61.2,55.5,50.5,55.1,47.4,38.8,97,76,47,29.96,29.87,28,10,28,0.00
2014-5-2,66.3,55.4,46.9,45.0,40.0,36.5,77,57,40,29.99,29.88,24,5,24,0.00
2014-5-3,69.8,58.3,47.2,47.3,41.9,37.7,76,56,39,30.04,29.93,20,4,20,0.00
2014-5-4,79.0,67.6,54.9,52.6,47.2,42.8,66,49,32,30.09,29.97,25,6,25,0.00
2014-5-5,81.9,72.0,64.2,56.9,51.7,47.2,63,50,31,30.00,29.86,36,12,36,0.00
2014-5-6,83.3,72.7,63.5,56.8,52.2,44.4,67,51,26,29.95,29.86,28,7,28,0.00
2014-5-7,84.2,70.6,55.5,58.3,53.0,46.0,87,57,33,30.09,29.95,19,4,19,0.00
2014-5-8,84.0,71.0,55.8,61.4,54.5,45.9,84,58,39,30.18,30.07,20,4,20,0.00
2014-5-9,71.8,66.3,59.1,61.3,58.1,54.0,97,76,58,30.11,30.00,28,7,28,0.32
2014-5-10,65.0,60.5,58.0,63.0,59.4,57.4,99,96,88,30.13,30.05,22,2,22,0.39
2014-5-11,82.1,66.4,53.5,66.0,58.3,52.5,100,79,39,30.19,30.08,17,2,17,0.00
2014-5-12,82.0,70.0,58.7,67.9,63.1,57.5,98,80,60,30.18,30.08,16,2,16,0.00
2014-5-13,80.1,69.7,61.9,67.3,63.8,60.4,98,83,58,30.14,30.04,18,1,19,0.01
2014-5-14,81.4,68.0,59.5,64.2,60.5,54.7,97,80,43,30.12,29.92,29,4,29,0.70
2014-5-15,62.9,56.5,46.7,62.1,55.2,43.9,99,95,90,30.03,29.84,24,5,24,0.89
2014-5-16,54.0,47.0,41.9,49.0,42.1,35.7,98,83,65,30.17,30.00,29,4,29,0.42
2014-5-17,52.2,46.6,39.2,48.4,43.1,35.9,97,88,69,30.27,30.16,23,4,23,0.04
2014-5-18,55.4,50.9,47.4,54.1,49.7,46.6,99,96,90,30.26,30.21,15,1,15,0.17
2014-5-19,70.5,56.9,46.6,55.6,49.5,46.1,99,80,48,30.33,30.21,12,1,12,0.00
2014-5-20,74.9,62.2,50.1,61.8,55.2,48.7,100,80,57,30.29,30.12,25,5,25,0.00
2014-5-21,77.0,69.1,61.7,64.0,59.4,55.7,82,72,55,30.16,30.02,31,7,31,0.00
2014-5-22,80.0,70.0,61.2,67.1,62.3,59.2,93,77,60,30.10,29.99,16,2,19,0.03
2014-5-23,79.6,70.9,60.6,69.1,64.2,58.1,96,80,60,30.06,30.00,13,1,14,0.00
2014-5-24,79.8,68.0,58.9,62.7,57.1,47.4,96,71,40,30.10,30.00,8,1,8,0.00
2014-5-25,71.4,62.7,55.2,65.4,56.8,49.4,96,81,66,30.17,30.08,7,0,7,0.05
2014-5-26,80.4,66.1,57.2,69.2,62.0,56.0,98,88,58,30.23,30.10,16,2,20,0.25
2014-5-27,79.5,69.1,62.2,67.9,63.7,58.2,99,84,63,30.15,30.00,32,2,32,0.00
2014-5-28,84.2,69.5,60.5,67.9,62.0,58.9,98,79,47,30.07,29.96,15,2,15,0.40
2014-5-29,70.1,64.6,59.6,68.4,64.0,59.0,100,98,91,30.07,29.99,6,0,6,1.04
2014-5-30,76.5,66.0,62.6,70.1,64.7,62.3,100,96,75,30.11,30.04,15,0,15,0.54
2014-5-31,78.2,66.3,60.1,69.8,64.4,59.8,100,94,65,30.14,30.05,15,1,15,0.42
2014-6-1,71.7,65.9,61.4,66.3,62.2,57.6,99,89,71,30.23,30.14,12,0,12,0.00
2014-6-2,77.0,65.1,55.6,65.7,59.4,54.5,97,83,64,30.24,30.10,14,2,14,0.00
2014-6-3,75.6,66.5,57.1,69.4,62.5,55.4,97,87,75,30.15,30.00,13,1,13,0.00
2014-6-4,81.6,70.3,60.7,70.3,65.7,60.1,100,87,62,30.01,29.83,25,3,25,0.00
2014-6-5,72.0,69.3,66.1,69.0,66.5,63.7,98,91,81,29.86,29.76,25,4,25,0.66
2014-6-6,78.8,70.9,65.3,71.9,66.4,63.9,99,87,65,29.94,29.86,15,1,15,0.00
2014-6-7,84.6,71.6,62.0,68.9,65.2,61.0,98,82,57,29.97,29.87,10,1,10,0.00
2014-6-8,77.3,69.7,63.0,69.0,65.0,62.4,99,86,71,29.92,29.85,28,4,28,0.35
2014-6-9,77.7,68.7,60.0,67.4,63.4,59.1,99,84,63,29.94,29.87,23,3,23,0.00
2014-6-10,79.3,67.8,61.6,72.0,64.9,60.7,100,91,68,29.97,29.87,41,3,41,0.30
2014-6-11,75.8,66.0,60.7,68.0,63.7,60.2,100,93,71,29.92,29.80,20,3,20,0.74
2014-6-12,73.0,66.0,61.0,68.5,63.3,60.4,100,91,73,29.91,29.83,12,0,12,0.04
2014-6-13,72.4,64.4,60.4,67.0,62.9,59.8,100,95,77,29.97,29.85,31,1,31,0.29
2014-6-14,77.4,67.6,60.0,69.1,64.2,59.7,100,90,69,30.06,29.96,5,0,5,0.00
2014-6-15,82.6,70.2,62.7,70.7,66.3,61.6,98,89,60,30.14,30.04,24,1,24,0.00
2014-6-16,79.1,71.4,65.8,72.7,68.2,64.8,98,90,74,30.19,30.11,12,0,12,0.00
2014-6-17,82.7,73.2,64.7,71.9,67.1,64.1,100,83,58,30.21,30.08,10,0,10,0.00
2014-6-18,79.3,70.7,65.2,74.6,67.7,63.8,97,90,76,30.15,30.08,23,0,23,0.06
2014-6-19,85.5,72.2,62.8,72.4,66.3,61.9,99,83,60,30.17,30.08,22,1,22,0.02
2014-6-20,84.5,71.6,60.8,72.6,65.8,60.2,99,84,52,30.11,29.97,10,0,10,0.00
2014-6-21,84.1,71.7,66.9,69.2,66.4,62.3,94,84,58,29.99,29.86,21,2,21,0.03
2014-6-22,82.0,72.3,62.8,70.9,66.1,61.6,98,82,62,29.95,29.85,7,0,7,0.00
2014-6-23,83.2,71.1,63.0,73.0,66.3,61.7,98,86,60,30.05,29.91,13,1,13,0.41
2014-6-24,73.9,68.6,63.8,71.5,67.2,63.4,100,95,85,30.06,29.98,10,1,10,0.53
2014-6-25,77.9,70.7,66.8,72.3,68.0,64.9,99,91,79,30.05,29.96,20,3,20,0.32
2014-6-26,80.4,70.4,62.8,70.5,66.1,62.5,100,87,63,30.07,29.93,2,0,1,0.01
2014-6-27,78.6,70.9,67.4,72.2,67.9,66.2,97,91,71,30.09,29.98,17,1,17,0.02
2014-6-28,77.9,70.0,64.9,70.8,67.4,64.0,98,92,73,30.20,30.08,14,1,14,0.15
2014-6-29,84.8,69.7,65.2,72.7,67.3,64.9,100,93,63,30.23,30.10,16,1,16,0.27
2014-6-30,74.6,68.7,64.0,72.7,67.9,63.7,100,97,90,30.12,29.97,20,2,20,0.67
2014-7-1,87.1,75.0,66.7,74.7,70.0,66.4,100,86,58,30.01,29.87,12,2,12,0.00
2014-7-2,90.0,76.8,67.8,72.7,69.3,65.8,99,80,52,29.96,29.90,17,1,17,0.00
2014-7-3,81.3,72.3,65.0,70.6,65.6,56.6,95,80,64,30.02,29.92,17,1,17,0.00
2014-7-4,75.8,66.6,58.1,64.7,58.0,55.3,93,75,57,30.20,30.01,8,1,8,0.00
2014-7-5,78.2,66.6,54.5,66.9,58.8,52.2,95,77,57,30.26,30.16,16,1,16,0.00
2014-7-6,80.1,67.8,56.1,65.4,60.2,54.1,96,78,56,30.19,30.04,6,0,6,0.00
2014-7-7,84.4,71.2,61.1,69.3,64.0,59.6,97,79,56,30.08,29.94,18,2,19,0.00
2014-7-8,79.3,70.6,64.1,72.0,65.6,60.5,98,85,71,30.04,29.93,35,5,35,0.37
2014-7-9,78.1,71.2,65.9,70.3,67.4,65.0,98,88,69,30.03,29.94,15,3,15,0.32
2014-7-10,77.9,69.5,63.9,71.6,66.9,63.6,100,92,72,30.11,29.99,5,0,5,0.02
2014-7-11,83.8,71.2,63.5,72.8,66.9,62.9,100,88,59,30.18,30.08,17,0,17,0.01
2014-7-12,77.7,71.1,64.8,72.6,68.1,63.9,99,90,75,30.19,30.12,15,1,15,0.00
2014-7-13,83.9,74.0,65.2,71.3,68.2,64.2,99,84,60,30.16,30.01,15,1,15,0.00
2014-7-14,81.0,74.6,68.4,74.4,70.0,66.6,97,86,72,30.02,29.87,17,3,17,0.20
2014-7-15,74.5,70.7,64.9,71.1,67.3,60.3,96,89,82,29.90,29.77,22,3,22,0.15
2014-7-16,74.1,65.3,57.7,64.7,58.1,54.2,94,78,58,29.98,29.84,10,1,10,0.00
2014-7-17,77.4,65.2,55.0,64.9,58.5,52.9,95,80,57,30.08,29.97,9,0,9,0.00
2014-7-18,65.6,63.6,62.7,65.3,62.2,58.9,99,95,85,30.13,30.06,7,0,7,0.65
2014-7-19,65.9,63.7,62.7,65.9,63.5,62.4,100,99,99,30.12,30.04,8,0,8,0.88
2014-7-20,80.1,69.6,63.7,72.3,67.1,63.4,100,93,70,30.09,29.98,17,1,17,0.06
2014-7-21,78.0,71.0,66.7,72.4,68.7,66.0,100,93,74,30.09,30.00,7,0,7,0.36
2014-7-22,79.2,71.2,65.8,72.4,68.1,64.7,98,90,77,30.13,30.05,9,0,8,0.00
2014-7-23,80.5,70.5,66.0,74.5,68.6,65.2,99,94,77,30.10,29.96,18,0,18,0.08
2014-7-24,80.0,70.3,66.4,72.7,68.5,65.8,100,94,76,29.99,29.90,15,1,15,0.76
2014-7-25,81.7,70.6,62.6,69.7,65.4,62.2,99,85,57,30.05,29.94,10,1,10,0.00
2014-7-26,82.9,71.1,60.3,71.1,64.7,58.5,99,82,48,30.10,30.00,14,1,14,0.00
2014-7-27,84.5,76.4,69.3,74.7,70.2,64.1,92,81,68,30.09,29.89,24,5,24,0.00
2014-7-28,77.2,70.9,66.3,72.3,65.0,59.8,98,82,63,29.99,29.89,23,4,23,0.27
2014-7-29,75.0,65.1,59.0,62.0,57.8,52.1,95,78,55,30.10,29.97,12,1,12,0.00
2014-7-30,73.0,61.8,51.2,63.0,55.9,49.3,97,82,64,30.15,30.09,4,0,3,0.00
2014-7-31,69.0,63.2,58.3,66.0,61.1,56.8,98,93,86,30.16,30.12,1,0,1,0.01
2014-8-1,74.9,67.7,62.0,69.5,64.2,60.9,98,89,70,30.14,30.04,15,1,15,0.00
2014-8-2,74.3,67.4,63.6,70.5,65.6,62.8,99,94,80,30.13,30.05,14,0,14,0.30
2014-8-3,77.1,68.3,61.6,67.8,63.9,60.6,100,87,59,30.15,30.06,6,0,6,0.00
2014-8-4,77.9,68.8,62.0,68.5,64.3,61.1,99,86,67,30.14,30.04,4,0,4,0.01
2014-8-5,81.1,69.7,61.7,67.5,62.9,59.1,99,81,56,30.12,30.05,7,0,7,0.01
2014-8-6,80.9,69.3,59.6,70.7,63.9,58.1,96,84,66,30.10,30.01,12,1,12,0.02
2014-8-7,83.1,73.2,65.7,70.7,66.9,64.5,98,82,59,30.06,29.97,6,0,6,0.00
2014-8-8,71.2,68.1,65.9,70.7,67.0,64.6,100,96,87,30.12,30.00,5,0,5,1.74
2014-8-9,79.3,71.6,65.8,72.9,68.9,65.5,100,92,77,30.10,29.97,14,1,14,0.00
2014-8-10,76.9,71.3,68.0,72.2,69.9,67.7,100,96,83,30.05,29.97,15,1,15,0.24
2014-8-11,82.7,73.3,66.7,73.4,69.9,65.6,99,90,69,30.05,29.90,13,2,13,0.47
2014-8-12,74.6,69.3,64.8,72.3,67.6,64.2,100,95,82,30.00,29.84,17,1,17,0.53
2014-8-13,72.9,65.7,60.3,65.6,61.0,58.3,95,85,68,30.07,29.93,10,2,10,0.03
2014-8-14,78.8,65.6,55.8,67.1,60.7,55.1,100,85,60,30.12,30.02,11,0,11,0.00
2014-8-15,79.1,67.6,57.2,66.7,61.6,56.4,100,83,54,30.09,30.01,5,0,5,0.00
2014-8-16,76.3,67.4,57.5,70.4,62.7,56.3,98,86,64,30.10,30.03,8,0,9,0.00
2014-8-17,78.6,70.9,63.2,69.9,66.0,61.8,96,85,70,30.08,29.95,16,2,16,0.00
2014-8-18,76.7,69.8,66.5,70.9,67.8,65.7,99,93,78,30.00,29.87,24,5,24,0.62
2014-8-19,79.7,70.7,66.3,72.9,68.3,65.8,100,92,74,29.96,29.87,14,2,14,0.01
2014-8-20,83.0,71.4,64.3,75.1,68.6,63.7,100,91,72,30.19,29.95,20,1,20,0.22
2014-8-21,82.8,72.0,62.3,76.5,68.6,61.9,100,90,70,30.19,30.11,10,0,11,0.00
2014-8-22,84.5,75.0,66.7,74.6,70.2,65.8,100,86,63,30.15,30.00,10,1,10,0.00
2014-8-23,83.0,75.2,70.7,75.2,71.4,68.7,96,88,70,30.04,29.92,11,0,11,0.04
2014-8-24,83.9,71.7,66.0,74.7,69.2,65.3,99,93,70,30.06,29.92,22,1,22,0.38
2014-8-25,81.3,70.9,64.4,71.9,67.1,63.1,98,88,66,30.11,30.03,8,0,8,0.00
2014-8-26,80.9,69.2,57.9,69.2,63.6,56.8,98,83,59,30.17,30.07,7,0,7,0.00
2014-8-27,82.0,70.4,61.0,69.9,65.0,60.2,99,84,60,30.14,30.03,8,0,8,0.00
2014-8-28,88.4,72.6,61.0,72.0,66.5,60.3,99,83,53,30.10,30.00,9,0,9,0.00
2014-8-29,84.8,73.3,63.4,72.5,65.8,62.2,98,79,52,30.14,30.04,12,1,12,0.00
2014-8-30,80.5,72.7,65.1,72.3,67.6,63.0,98,85,69,30.17,30.08,14,1,14,0.17
2014-8-31,78.4,71.9,66.1,72.2,68.9,65.6,100,91,75,30.17,30.11,10,1,10,0.35
2014-9-1,82.2,74.2,68.2,73.7,69.6,67.0,97,86,65,30.15,30.06,16,2,16,0.00
2014-9-2,82.2,75.0,67.2,73.9,69.7,66.3,99,84,65,30.12,29.98,17,1,17,0.00
2014-9-3,81.8,72.1,65.5,73.6,69.1,64.9,100,91,71,30.11,30.00,16,1,16,0.75
2014-9-4,78.0,70.8,67.5,72.5,69.2,67.2,100,95,79,30.19,30.09,14,1,14,1.14
2014-9-5,80.2,70.1,66.0,74.7,68.8,65.7,100,96,77,30.23,30.11,19,0,19,0.10
2014-9-6,78.6,70.6,65.4,74.7,69.1,65.1,100,95,80,30.14,30.00,11,0,11,0.03
2014-9-7,81.3,70.7,66.0,72.1,68.7,65.4,100,94,70,30.07,29.99,9,0,9,0.08
2014-9-8,76.1,69.0,65.4,73.0,67.8,65.1,100,96,81,30.11,30.03,12,0,12,0.50
2014-9-9,77.4,69.4,64.6,71.5,67.3,64.3,100,93,78,30.15,30.05,15,1,15,0.01
2014-9-10,75.2,68.7,62.4,69.3,65.7,61.8,99,91,77,30.14,30.02,12,1,12,0.00
2014-9-11,76.5,70.3,65.3,72.8,68.8,64.2,99,95,85,30.08,30.00,16,2,16,0.87
2014-9-12,81.0,71.6,66.7,74.3,69.6,66.3,100,94,75,30.10,30.00,10,0,10,0.00
2014-9-13,75.5,69.6,64.3,70.3,67.3,62.8,99,93,78,30.16,30.03,9,1,9,0.00
2014-9-14,72.2,66.8,62.3,69.2,65.6,61.9,100,96,89,30.22,30.14,13,1,13,0.02
2014-9-15,75.1,68.6,64.9,69.2,66.4,64.3,99,93,75,30.21,30.11,14,2,14,0.77
2014-9-16,75.4,69.0,64.8,69.4,66.4,63.6,99,92,76,30.15,30.00,8,1,8,0.00
2014-9-17,73.2,65.8,59.2,65.5,61.6,56.3,98,87,63,30.01,29.90,15,2,15,0.00
2014-9-18,73.2,63.9,57.0,62.3,58.6,55.7,97,84,57,30.07,29.96,7,0,7,0.00
2014-9-19,73.7,64.7,57.2,66.5,61.1,56.6,100,89,71,30.20,30.06,6,0,6,0.00
2014-9-20,76.4,66.5,59.7,65.1,61.1,58.1,96,84,57,30.22,30.05,14,1,14,0.00
2014-9-21,73.1,65.9,59.1,67.6,63.1,58.2,98,91,81,30.09,29.94,16,3,16,0.10
2014-9-22,67.1,60.5,53.6,65.9,55.2,50.6,97,84,65,30.20,29.98,16,1,16,0.01
2014-9-23,70.0,58.0,47.4,62.4,54.0,46.5,99,87,68,30.31,30.20,6,0,6,0.00
2014-9-24,75.9,62.0,51.9,62.5,56.4,51.1,99,84,54,30.35,30.25,6,0,6,0.00
2014-9-25,75.4,64.4,56.0,66.5,59.9,53.1,95,86,69,30.28,30.15,7,0,7,0.00
2014-9-26,76.4,65.6,57.6,66.8,61.6,56.8,99,88,65,30.22,30.12,12,1,12,0.00
2014-9-27,74.8,64.6,58.8,65.2,60.3,57.2,96,87,67,30.23,30.13,9,0,9,0.00
2014-9-28,69.9,62.4,56.2,64.5,60.0,55.4,100,92,79,30.21,30.11,5,0,5,0.00
2014-9-29,68.6,63.9,61.6,66.2,63.0,61.0,100,97,89,30.11,29.97,0,0,0,0.67
2014-9-30,73.2,64.8,59.2,65.6,61.4,58.9,99,90,68,30.01,29.91,7,0,7,0.00
2014-10-1,73.8,62.5,54.7,64.1,57.4,54.1,100,85,51,30.10,29.97,9,0,9,0.00
2014-10-2,75.3,62.8,53.6,65.8,58.5,52.8,99,87,62,30.19,30.06,14,1,14,0.00
2014-10-3,68.7,65.3,58.9,66.3,62.6,56.8,98,91,79,30.07,29.83,25,6,25,0.62
2014-10-4,58.7,47.5,38.6,56.7,40.0,32.4,95,76,55,30.02,29.84,22,4,22,0.01
2014-10-5,58.9,47.2,35.3,44.3,37.7,30.0,96,71,50,30.13,30.01,25,2,25,0.00
2014-10-6,60.6,53.5,46.8,57.9,49.7,42.6,98,87,70,30.12,30.02,17,2,17,0.75
2014-10-7,65.0,58.9,53.8,62.8,57.5,52.7,99,95,83,30.15,30.03,23,5,23,0.44
2014-10-8,73.2,65.1,59.6,66.9,60.8,56.3,98,87,59,30.17,30.06,22,5,22,0.23
2014-10-9,72.6,60.6,51.4,66.4,58.1,50.6,100,92,74,30.23,30.12,15,1,15,0.02
2014-10-10,74.8,65.7,58.9,67.0,63.0,58.6,100,92,72,30.16,30.02,20,3,20,0.03
2014-10-11,70.3,66.6,62.6,65.6,64.1,61.0,99,92,81,30.07,29.98,17,3,17,0.03
2014-10-12,69.7,63.7,59.8,66.9,62.3,59.0,100,95,83,30.15,30.04,10,1,10,0.12
2014-10-13,71.0,66.3,61.7,64.5,62.2,61.1,99,87,74,30.16,29.98,21,6,21,0.08
2014-10-14,68.9,62.6,53.2,64.6,61.1,51.1,99,95,80,29.98,29.68,34,8,34,4.15
2014-10-15,55.0,51.5,49.6,51.3,49.9,48.1,98,94,81,29.92,29.87,21,4,21,0.20
2014-10-16,54.1,50.3,47.6,52.0,49.1,46.5,99,96,87,30.01,29.85,15,3,15,0.14
2014-10-17,67.9,55.0,42.7,57.8,50.4,42.2,100,86,63,30.06,29.94,24,6,24,0.00
2014-10-18,62.3,57.0,48.6,56.8,50.1,42.0,89,78,60,30.07,29.89,15,5,15,0.00
2014-10-19,69.8,52.5,41.8,51.6,45.1,39.4,93,77,47,30.23,30.05,11,1,11,0.00
2014-10-20,63.0,52.4,42.7,52.0,47.8,41.6,98,85,59,30.18,30.04,16,3,16,0.02
2014-10-21,62.9,54.0,47.6,51.3,47.7,42.3,96,80,56,30.08,30.00,14,2,17,0.00
2014-10-22,58.3,47.2,39.0,45.6,39.8,36.4,91,76,56,30.24,30.06,10,2,10,0.00
2014-10-23,66.6,47.7,34.5,45.8,39.7,33.2,97,77,41,30.24,30.12,7,0,7,0.00
2014-10-24,66.2,51.4,40.3,43.5,39.0,29.6,94,67,26,30.17,30.08,10,1,10,0.00
2014-10-25,69.3,55.5,41.0,55.9,43.7,29.5,86,67,32,30.16,30.07,12,2,14,0.00
2014-10-26,75.4,63.3,56.4,57.6,52.2,45.7,93,70,35,30.09,30.01,14,3,14,0.00
2014-10-27,79.6,62.6,47.7,58.1,51.8,45.2,93,70,40,30.17,30.05,12,1,12,0.00
2014-10-28,70.6,63.4,57.3,60.0,56.2,53.4,95,78,55,30.15,30.07,17,4,17,0.00
2014-10-29,60.4,55.2,45.2,57.6,51.2,40.1,98,87,65,30.11,30.02,16,4,16,0.11
2014-10-30,60.0,48.7,39.5,41.9,38.3,32.3,91,70,37,30.16,30.04,10,1,11,0.00
2014-10-31,51.7,42.1,31.7,41.1,37.1,30.2,94,83,55,30.05,29.91,15,3,15,0.09
2014-11-1,32.5,31.3,30.0,31.1,29.6,28.2,95,94,88,30.35,29.91,22,8,22,0.00
2014-11-2,45.6,34.7,26.7,32.5,26.9,23.1,91,74,54,30.52,30.33,20,5,20,0.13
2014-11-3,63.8,44.4,27.9,30.6,24.0,14.4,88,53,16,30.60,30.47,14,2,14,0.00
2014-11-4,66.4,53.7,41.8,34.3,28.5,20.6,69,40,24,30.48,30.28,15,4,15,0.00
2014-11-5,59.3,55.3,51.6,52.1,44.9,27.1,86,70,37,30.33,30.18,14,3,14,0.00
2014-11-6,60.0,52.9,40.6,55.1,46.5,32.1,98,80,49,30.18,29.92,37,12,37,0.43
2014-11-7,54.6,42.4,35.9,38.4,34.7,30.7,90,75,53,30.18,30.05,16,3,16,0.00
2014-11-8,58.3,44.5,31.9,40.4,35.0,30.7,97,72,42,30.13,30.02,14,3,14,0.00
2014-11-9,62.3,47.4,37.0,42.2,37.2,33.4,88,69,40,30.09,29.99,14,1,16,0.00
2014-11-10,68.9,49.6,35.4,42.3,37.3,32.8,91,66,35,30.16,30.07,16,3,16,0.00
2014-11-11,67.7,51.5,37.0,44.7,36.3,27.9,82,59,34,30.15,30.02,17,3,17,0.00
2014-11-12,65.0,54.8,40.6,54.5,48.8,39.3,96,81,61,30.10,30.01,16,4,16,0.00
2014-11-13,40.5,33.9,25.2,39.4,33.0,24.0,98,97,95,30.24,30.08,16,4,17,0.00
2014-11-14,33.2,25.1,19.5,24.0,18.7,16.0,95,78,53,30.43,30.23,14,4,14,0.00
2014-11-15,45.1,30.6,18.3,28.3,20.9,15.5,92,70,43,30.54,30.39,16,2,16,0.00
2014-11-16,45.6,39.1,33.4,44.4,32.0,23.6,98,76,55,30.41,30.05,6,0,6,0.35
2014-11-17,53.5,39.4,20.3,52.7,37.9,16.3,99,94,83,30.12,29.76,32,8,32,1.45
2014-11-18,25.2,19.8,16.7,16.9,11.1,6.5,85,69,52,30.49,30.11,23,6,23,0.00
2014-11-19,39.5,27.3,13.8,22.9,14.9,6.3,81,60,44,30.54,30.36,22,6,22,0.00
2014-11-20,48.4,40.6,34.6,30.7,26.5,21.3,67,57,46,30.40,30.22,32,15,32,0.00
2014-11-21,56.2,43.7,36.5,30.5,23.7,8.7,66,46,28,30.53,30.34,10,2,10,0.00
2014-11-22,57.7,42.6,29.3,41.7,31.9,25.2,85,67,43,30.56,30.32,17,2,17,0.00
2014-11-23,59.1,50.7,43.6,55.7,47.4,33.4,99,89,64,30.32,29.69,48,7,48,1.10
2014-11-24,65.0,58.8,49.9,54.2,50.0,43.3,88,73,55,29.99,29.73,36,16,36,0.00
2014-11-25,56.7,46.7,40.4,43.4,30.8,22.0,78,56,28,30.15,29.98,13,3,13,0.00
2014-11-26,48.9,42.0,34.2,34.1,29.3,23.5,93,62,40,30.11,29.97,31,6,31,0.00
2014-11-27,34.3,31.2,25.7,33.0,28.2,22.2,96,89,80,30.44,30.04,17,6,17,0.00
2014-11-28,45.0,31.8,22.3,25.1,21.0,18.3,89,67,38,30.52,30.37,12,3,12,0.07
2014-11-29,47.9,40.8,29.6,38.8,29.1,20.3,79,63,46,30.41,30.29,20,2,20,0.00
2014-11-30,60.3,52.8,45.0,50.2,45.6,36.6,91,77,62,30.39,30.29,24,4,24,0.00
2014-12-1,59.8,53.9,49.6,54.3,50.0,45.9,93,87,80,30.45,30.35,20,4,20,0.00
2014-12-2,59.4,57.7,53.6,54.8,52.5,39.5,98,83,50,30.34,30.25,19,6,19,0.14
2014-12-3,56.8,54.6,52.6,52.9,51.0,48.7,96,88,78,30.32,30.24,23,7,23,0.07
2014-12-4,60.6,54.0,47.6,53.9,50.2,46.2,100,87,75,30.39,30.28,20,3,20,0.00
2014-12-5,54.3,51.7,49.9,54.0,51.1,49.6,99,98,93,30.42,30.30,10,0,10,0.25
2014-12-6,54.6,50.4,42.7,53.8,49.5,40.5,100,97,91,30.31,30.11,29,9,29,0.37
2014-12-7,58.4,43.1,34.9,44.5,37.2,19.5,98,81,45,30.43,30.30,14,3,14,0.00
2014-12-8,49.9,39.9,34.3,39.0,30.7,17.8,93,70,42,30.42,30.25,10,2,10,0.00
2014-12-9,40.9,36.8,33.1,36.3,33.8,30.5,95,89,76,30.25,30.11,18,4,18,0.00
2014-12-10,37.4,32.6,28.4,31.5,28.7,24.7,92,85,76,30.26,30.18,20,7,20,0.01
2014-12-11,41.9,32.3,26.4,25.3,22.3,16.9,87,68,39,30.35,30.17,13,4,13,0.01
2014-12-12,53.5,38.9,27.7,22.5,14.8,-7.5,70,41,11,30.47,30.35,17,3,17,0.00
2014-12-13,60.5,43.9,34.4,28.9,22.0,15.3,65,43,27,30.36,30.21,10,2,10,0.00
2014-12-14,65.8,41.0,29.3,37.3,27.4,21.6,78,60,28,30.23,30.13,12,1,12,0.00
2014-12-15,61.6,43.8,30.4,44.4,29.7,24.7,94,63,25,30.19,30.09,22,3,22,0.07
2014-12-16,50.9,45.9,40.7,49.9,42.7,36.8,99,89,72,30.19,29.96,32,9,32,0.41
2014-12-17,51.7,41.2,35.9,40.1,34.5,22.0,95,78,46,30.29,30.17,15,3,15,0.00
2014-12-18,51.4,41.0,34.5,36.0,28.3,14.3,77,61,39,30.27,30.16,24,3,24,0.00
2014-12-19,50.7,40.6,33.7,38.1,32.5,26.3,82,73,61,30.25,30.17,14,2,14,0.00
2014-12-20,42.2,40.1,37.4,41.7,38.7,32.9,98,95,81,30.29,30.21,11,1,11,0.04
2014-12-21,48.9,43.3,39.7,44.0,40.8,39.2,99,91,78,30.31,30.16,20,1,20,0.00
2014-12-22,57.6,47.0,41.9,49.0,44.2,40.6,98,91,72,30.17,29.93,17,1,17,0.28
2014-12-23,57.4,50.4,46.5,56.2,49.5,46.0,100,97,89,30.01,29.83,33,4,33,1.69
2014-12-24,59.3,51.0,39.3,57.7,49.9,36.8,100,96,86,29.88,29.61,37,6,37,0.28
2014-12-25,49.5,38.9,32.0,37.7,33.6,29.6,97,82,50,30.35,29.85,17,5,17,0.05
2014-12-26,55.8,39.4,27.9,33.6,27.9,22.7,95,69,29,30.48,30.35,10,0,10,0.00
2014-12-27,60.7,47.7,36.5,36.2,28.6,18.8,81,52,25,30.43,30.26,13,0,0,0.00
2014-12-28,55.1,52.0,46.9,54.7,50.4,30.2,100,95,40,30.26,30.06,22,5,22,0.41
2014-12-29,53.5,50.0,47.2,50.8,48.6,46.7,99,95,87,30.16,30.05,14,3,14,0.43
2014-12-30,47.2,39.7,32.3,46.7,38.3,30.1,99,95,87,30.49,30.14,11,2,11,0.01
2014-12-31,42.2,33.4,29.4,33.5,28.7,18.3,96,83,62,30.55,30.46,14,1,14,0.00
2015-1-1,43.7,35.9,26.9,32.4,25.0,20.3,85,66,43,30.47,30.37,20,0,0,0.00
2015-1-2,47.4,45.5,40.0,46.8,43.5,32.4,99,93,74,30.42,30.33,18,0,9,0.17